Terminal Aerodrome Forecast
Issued by NWS Albany, NY

Current Version | Previous Version | Text Only | Print | Product List | Glossary On
Versions: 1 2 3 4 5 6 7 8 9 10 11 12 13 14 15 16 17
749
FTUS41 KALY 241744 CCA
TAFGFL
TAF COR
KGFL 241744Z 2418/2518 VRB02KT P6SM VCSH SCT015 BKN100
      TEMPO 2418/2420 BKN015
     FM242000 VRB03KT P6SM SCT020 BKN100
     FM250300 19003KT 3SM BR OVC015
     FM250700 19003KT 2SM BR OVC008
     FM251500 20009KT 4SM BR OVC015=

USA.gov is the U.S. government's official web portal to all federal, state and local government web resources and services.